createdAt,value
2019-04-23T00:00:08.844Z,43.00
2019-04-23T00:02:40.735Z,43.10
2019-04-23T00:05:19.522Z,43.50
2019-04-23T00:10:25.973Z,44.20
2019-04-23T00:12:49.500Z,44.80
2019-04-23T00:15:23.363Z,45.10
2019-04-23T00:17:55.378Z,45.50
2019-04-23T00:20:42.340Z,45.70
2019-04-23T00:23:07.777Z,45.70
2019-04-23T00:28:18.263Z,45.60
2019-04-23T00:30:48.169Z,45.60
2019-04-23T00:33:11.793Z,45.50
2019-04-23T00:35:38.931Z,45.40
2019-04-23T00:38:21.072Z,45.40
2019-04-23T00:40:45.407Z,45.40
2019-04-23T00:43:15.449Z,45.30
2019-04-23T00:45:44.156Z,45.20
2019-04-23T00:48:22.322Z,45.20
2019-04-23T00:50:53.063Z,45.10
2019-04-23T00:53:17.383Z,46.60
2019-04-23T00:55:47.701Z,45.00
2019-04-23T00:58:23.667Z,45.00
2019-04-23T01:03:20.591Z,45.60
2019-04-23T01:06:09.733Z,46.20
2019-04-23T01:13:31.789Z,47.70
2019-04-23T01:16:06.050Z,48.30
2019-04-23T01:21:00.958Z,49.30
2019-04-23T01:23:47.099Z,49.50
2019-04-23T01:26:37.567Z,49.80
2019-04-23T01:29:06.749Z,50.10
2019-04-23T01:31:43.411Z,50.30
2019-04-23T01:34:20.172Z,50.70
2019-04-23T01:36:58.939Z,50.90
2019-04-23T01:39:19.080Z,51.40
2019-04-23T01:41:48.064Z,51.40
2019-04-23T01:44:21.828Z,51.70
2019-04-23T01:46:49.190Z,52.10
2019-04-23T01:49:23.694Z,52.50
2019-04-23T01:51:56.718Z,52.50
2019-04-23T01:54:24.102Z,53.00
2019-04-23T01:56:47.459Z,53.30
2019-04-23T01:59:26.342Z,53.30
2019-04-23T02:01:54.011Z,53.70
2019-04-23T02:04:28.422Z,54.00
2019-04-23T02:07:03.733Z,54.10
2019-04-23T02:09:37.252Z,54.60
2019-04-23T02:11:57.444Z,54.70
2019-04-23T02:17:00.139Z,55.30
2019-04-23T02:19:38.489Z,55.50
2019-04-23T02:22:25.307Z,55.70
2019-04-23T02:24:59.386Z,55.90
2019-04-23T02:27:29.528Z,56.20
2019-04-23T02:30:05.744Z,56.30
2019-04-23T02:32:29.668Z,56.70
2019-04-23T02:37:45.711Z,56.60
2019-04-23T02:40:11.312Z,57.20
2019-04-23T02:45:07.142Z,57.30
2019-04-23T02:47:42.602Z,57.20
2019-04-23T02:50:24.809Z,57.40
2019-04-23T03:00:26.830Z,57.40
2019-04-23T03:03:01.240Z,57.60
2019-04-23T03:05:13.239Z,57.70
2019-04-23T03:10:18.288Z,57.70
2019-04-23T03:13:09.608Z,57.80
2019-04-23T03:27:04.563Z,58.20
2019-04-23T03:29:16.864Z,58.50
2019-04-23T03:34:15.118Z,58.80
2019-04-23T03:37:13.231Z,58.90
2019-04-23T03:38:56.447Z,59.10
2019-04-23T03:41:50.381Z,59.40
2019-04-23T03:44:13.583Z,59.10
2019-04-23T03:46:44.092Z,59.40
2019-04-23T03:49:22.247Z,59.50
2019-04-23T03:52:12.058Z,59.50
2019-04-23T03:54:33.763Z,59.80
2019-04-23T04:07:32.673Z,60.30
2019-04-23T04:09:34.310Z,60.50
2019-04-23T04:12:07.706Z,60.50
2019-04-23T04:22:11.414Z,60.80
2019-04-23T04:29:54.887Z,60.70
2019-04-23T04:35:12.710Z,60.80
2019-04-23T04:39:43.076Z,60.90
2019-04-23T04:42:10.403Z,61.10
2019-04-23T04:49:51.363Z,61.20
2019-04-23T04:52:34.610Z,61.10
2019-04-23T04:54:47.787Z,61.00
2019-04-23T05:00:05.758Z,61.30
2019-04-23T05:04:55.902Z,60.70
2019-04-23T05:07:32.671Z,60.90
2019-04-23T05:10:07.532Z,60.90
2019-04-23T05:12:24.196Z,60.90
2019-04-23T05:17:42.187Z,60.90
2019-04-23T05:20:04.893Z,61.10
2019-04-23T05:22:45.249Z,60.80
2019-04-23T05:24:58.596Z,60.40
2019-04-23T05:27:46.692Z,60.40
2019-04-23T05:30:16.459Z,60.20
2019-04-23T05:32:48.886Z,60.10
2019-04-23T05:35:28.737Z,59.60
2019-04-23T05:37:59.383Z,59.20
2019-04-23T05:42:54.737Z,56.70
2019-04-23T05:45:21.843Z,56.30
2019-04-23T05:48:06.775Z,55.80
2019-04-23T05:53:09.943Z,54.70
2019-04-23T05:55:39.915Z,54.50
2019-04-23T05:58:02.624Z,55.10
2019-04-23T06:03:14.858Z,55.60
2019-04-23T06:05:52.532Z,55.50
2019-04-23T06:08:17.732Z,55.20
2019-04-23T06:10:55.661Z,55.10
2019-04-23T06:13:19.286Z,54.90
2019-04-23T06:15:50.408Z,55.10
2019-04-23T06:18:30.423Z,55.50
2019-04-23T06:20:55.568Z,55.20
2019-04-23T06:23:30.387Z,55.50
2019-04-23T06:26:08.066Z,55.00
2019-04-23T06:28:27.058Z,54.90
2019-04-23T06:31:07.869Z,54.80
2019-04-23T06:41:15.573Z,54.70
2019-04-23T06:43:54.771Z,55.90
2019-04-23T06:46:19.764Z,54.70
2019-04-23T06:48:46.974Z,56.10
2019-04-23T06:51:21.716Z,54.80
2019-04-23T06:53:47.913Z,54.40
2019-04-23T06:56:26.375Z,54.50
2019-04-23T06:58:57.221Z,53.80
2019-04-23T07:01:19.125Z,54.00
2019-04-23T07:04:00.313Z,54.00
2019-04-23T07:09:09.918Z,53.70
2019-04-23T07:11:34.126Z,53.40
2019-04-23T07:16:32.923Z,52.70
2019-04-23T07:21:30.382Z,52.90
2019-04-23T07:24:05.277Z,52.10
2019-04-23T07:26:41.836Z,51.60
2019-04-23T07:29:15.674Z,51.00
2019-04-23T07:34:23.306Z,50.10
2019-04-23T07:36:47.695Z,49.60
2019-04-23T07:39:23.532Z,49.20
2019-04-23T07:42:03.411Z,49.70
2019-04-23T07:44:42.574Z,48.70
2019-04-23T07:47:18.096Z,48.50
2019-04-23T07:49:49.158Z,48.20
2019-04-23T07:52:19.429Z,48.50
2019-04-23T07:59:50.113Z,47.10
2019-04-23T08:02:21.954Z,47.10
2019-04-23T08:05:02.556Z,47.10
2019-04-23T08:07:20.032Z,47.30
2019-04-23T08:09:54.695Z,47.40
2019-04-23T08:12:28.836Z,47.50
2019-04-23T08:15:01.299Z,47.70
2019-04-23T08:17:22.482Z,47.70
2019-04-23T08:22:25.858Z,47.70
2019-04-23T08:25:14.328Z,47.70
2019-04-23T08:27:28.031Z,47.70
2019-04-23T08:30:00.283Z,47.80
2019-04-23T08:32:28.014Z,48.00
2019-04-23T08:38:04.584Z,48.00
2019-04-23T08:40:09.750Z,48.10
2019-04-23T08:42:45.598Z,48.20
2019-04-23T08:45:37.696Z,48.30
2019-04-23T08:48:27.834Z,48.60
2019-04-23T08:55:49.251Z,49.20
2019-04-23T08:58:19.171Z,48.50
2019-04-23T09:00:55.344Z,48.60
2019-04-23T09:03:34.353Z,48.70
2019-04-23T09:08:27.315Z,46.80
2019-04-23T09:13:50.136Z,46.00
2019-04-23T09:15:55.591Z,45.50
2019-04-23T09:18:31.211Z,44.90
2019-04-23T09:20:57.166Z,44.00
2019-04-23T09:28:39.952Z,44.10
2019-04-23T09:31:24.939Z,44.10
2019-04-23T09:33:46.755Z,44.80
2019-04-23T09:36:16.705Z,43.60
2019-04-23T09:38:44.906Z,42.80
2019-04-23T09:44:27.789Z,41.70
2019-04-23T09:46:45.149Z,41.80
2019-04-23T09:49:20.141Z,42.40
2019-04-23T09:51:51.352Z,41.30
2019-04-23T09:54:42.183Z,41.60
2019-04-23T09:56:52.609Z,40.90
2019-04-23T10:01:45.221Z,39.90
2019-04-23T10:04:12.530Z,40.30
2019-04-23T10:06:34.559Z,41.00
2019-04-23T10:09:05.725Z,41.00
2019-04-23T10:11:34.586Z,39.50
2019-04-23T10:14:03.184Z,38.60
2019-04-23T10:16:37.088Z,37.60
2019-04-23T10:19:06.086Z,39.40
2019-04-23T10:21:37.454Z,37.50
2019-04-23T10:24:07.508Z,36.60
2019-04-23T10:26:37.722Z,37.00
2019-04-23T10:29:10.018Z,37.50
2019-04-23T10:31:40.679Z,37.10
2019-04-23T10:34:12.263Z,37.50
2019-04-23T10:36:42.319Z,38.20
2019-04-23T10:39:17.537Z,37.80
2019-04-23T10:41:46.267Z,37.40
2019-04-23T10:44:32.979Z,36.70
2019-04-23T10:47:45.250Z,36.70
2019-04-23T10:50:42.214Z,36.30
2019-04-23T10:53:13.239Z,37.80
2019-04-23T10:55:42.165Z,37.40
2019-04-23T10:58:08.451Z,36.20
2019-04-23T11:00:46.640Z,36.00
2019-04-23T11:03:35.328Z,36.60
2019-04-23T11:06:06.956Z,36.50
2019-04-23T11:08:17.622Z,36.60
2019-04-23T11:10:52.584Z,36.90
2019-04-23T11:13:31.464Z,36.40
2019-04-23T11:16:39.942Z,35.60
2019-04-23T11:18:39.885Z,35.90
2019-04-23T11:20:58.265Z,35.60
2019-04-23T11:23:34.408Z,36.40
2019-04-23T11:26:05.560Z,36.90
2019-04-23T11:28:33.061Z,36.50
2019-04-23T11:31:31.594Z,35.30
2019-04-23T11:34:01.018Z,35.40
2019-04-23T11:41:43.250Z,36.30
2019-04-23T11:44:09.836Z,36.60
2019-04-23T11:54:10.898Z,37.50
2019-04-23T11:59:22.928Z,37.30
2019-04-23T12:01:53.321Z,38.00
2019-04-23T12:04:33.150Z,37.20
2019-04-23T12:07:11.050Z,37.00
2019-04-23T12:12:23.800Z,37.70
2019-04-23T12:14:51.300Z,37.70
2019-04-23T12:20:13.471Z,36.80
2019-04-23T12:22:42.503Z,36.90
2019-04-23T12:27:39.831Z,36.30
2019-04-23T12:30:15.003Z,36.80
2019-04-23T12:35:27.374Z,36.20
2019-04-23T12:38:07.340Z,35.50
2019-04-23T12:40:46.027Z,35.20
2019-04-23T12:45:51.944Z,34.00
2019-04-23T12:48:24.254Z,34.40
2019-04-23T12:50:50.088Z,34.00
2019-04-23T12:53:23.687Z,33.60
2019-04-23T12:55:45.049Z,33.30
2019-04-23T13:00:51.520Z,33.20
2019-04-23T13:03:37.175Z,32.10
2019-04-23T13:05:42.248Z,33.10
2019-04-23T13:08:36.724Z,32.90
2019-04-23T13:10:49.732Z,32.50
2019-04-23T13:18:39.841Z,31.30
2019-04-23T13:21:17.398Z,31.50
2019-04-23T13:23:36.922Z,32.90
2019-04-23T13:26:18.382Z,32.10
2019-04-23T13:28:45.222Z,33.00
2019-04-23T13:31:12.571Z,32.70
2019-04-23T13:36:29.659Z,31.80
2019-04-23T13:38:47.247Z,31.90
2019-04-23T13:44:05.962Z,31.70
2019-04-23T13:46:20.013Z,31.40
2019-04-23T13:48:58.323Z,30.00
2019-04-23T13:51:25.682Z,30.60
2019-04-23T13:54:03.420Z,30.60
2019-04-23T13:56:55.801Z,30.60
2019-04-23T13:59:06.325Z,30.80
2019-04-23T14:01:35.485Z,30.70
2019-04-23T14:04:14.200Z,31.00
2019-04-23T14:06:47.489Z,31.10
2019-04-23T14:09:20.189Z,31.30
2019-04-23T14:11:38.614Z,30.20
2019-04-23T14:14:41.683Z,30.90
2019-04-23T14:16:59.751Z,31.00
2019-04-23T14:19:24.552Z,30.90
2019-04-23T14:22:04.987Z,31.10
2019-04-23T14:24:38.047Z,28.80
2019-04-23T14:27:00.815Z,30.00
2019-04-23T14:29:31.867Z,30.30
2019-04-23T14:34:37.795Z,30.30
2019-04-23T14:37:04.519Z,31.30
2019-04-23T14:39:40.535Z,30.60
2019-04-23T14:42:21.527Z,31.40
2019-04-23T14:44:41.780Z,32.20
2019-04-23T14:47:24.241Z,32.40
2019-04-23T14:49:59.308Z,34.10
2019-04-23T14:52:21.259Z,35.20
2019-04-23T14:57:45.755Z,34.80
2019-04-23T15:00:07.255Z,35.80
2019-04-23T15:02:40.374Z,35.90
2019-04-23T15:05:06.482Z,36.40
2019-04-23T15:10:10.522Z,37.00
2019-04-23T15:12:39.055Z,37.40
2019-04-23T15:15:22.498Z,37.80
2019-04-23T15:17:34.107Z,38.20
2019-04-23T15:20:12.013Z,37.90
2019-04-23T15:22:50.585Z,38.70
2019-04-23T15:30:03.748Z,39.70
2019-04-23T15:33:04.451Z,39.90
2019-04-23T15:40:22.964Z,40.00
2019-04-23T15:43:07.621Z,40.10
2019-04-23T15:45:34.248Z,40.60
2019-04-23T15:50:27.199Z,40.30
2019-04-23T15:53:04.690Z,40.60
2019-04-23T15:55:27.710Z,41.30
2019-04-23T15:58:09.764Z,40.90
2019-04-23T16:00:30.809Z,41.00
2019-04-23T16:02:36.510Z,41.00
2019-04-23T16:05:08.572Z,41.50
2019-04-23T16:07:54.767Z,41.30
2019-04-23T16:10:38.032Z,41.20
2019-04-23T16:13:13.565Z,41.00
2019-04-23T16:15:45.402Z,41.10
2019-04-23T16:18:22.019Z,41.20
2019-04-23T16:20:51.529Z,41.80
2019-04-23T16:23:16.874Z,40.70
2019-04-23T16:25:43.110Z,41.90
2019-04-23T16:28:18.821Z,41.60
2019-04-23T16:31:00.866Z,41.70
2019-04-23T16:33:16.559Z,42.00
2019-04-23T16:38:34.182Z,42.10
2019-04-23T16:40:57.204Z,41.50
2019-04-23T16:43:30.319Z,41.50
2019-04-23T16:46:07.466Z,41.50
2019-04-23T16:53:29.963Z,42.60
2019-04-23T16:56:13.149Z,42.90
2019-04-23T16:58:42.097Z,42.90
2019-04-23T17:03:37.921Z,42.80
2019-04-23T17:06:27.948Z,42.90
2019-04-23T17:08:52.966Z,43.00
2019-04-23T17:11:15.705Z,42.90
2019-04-23T17:13:52.088Z,42.80
2019-04-23T17:16:15.380Z,42.90
2019-04-23T17:18:51.479Z,44.00
2019-04-23T17:21:11.847Z,43.20
2019-04-23T17:24:11.453Z,43.40
2019-04-23T17:26:23.954Z,43.80
2019-04-23T17:28:54.481Z,43.70
2019-04-23T17:31:32.407Z,43.80
2019-04-23T17:33:59.214Z,44.00
2019-04-23T17:37:03.496Z,44.20
2019-04-23T17:47:17.730Z,44.60
2019-04-23T17:49:52.684Z,44.80
2019-04-23T17:52:20.331Z,44.70
2019-04-23T17:54:56.720Z,44.80
2019-04-23T18:00:10.019Z,44.90
2019-04-23T18:02:49.928Z,45.00
2019-04-23T18:05:02.394Z,45.30
2019-04-23T18:07:38.062Z,45.60
2019-04-23T18:10:12.736Z,45.70
2019-04-23T18:12:39.119Z,45.60
2019-04-23T18:15:00.745Z,45.80
2019-04-23T18:20:16.657Z,46.20
2019-04-23T18:22:58.495Z,46.70
2019-04-23T18:25:25.833Z,46.50
2019-04-23T18:30:40.975Z,46.80
2019-04-23T18:33:51.212Z,47.40
2019-04-23T18:35:44.000Z,47.60
2019-04-23T18:38:29.012Z,47.50
2019-04-23T18:41:02.477Z,48.00
2019-04-23T18:48:39.293Z,49.10
2019-04-23T18:51:00.331Z,49.80
2019-04-23T18:53:40.799Z,50.70
2019-04-23T18:58:44.673Z,50.60
2019-04-23T19:01:11.319Z,50.50
2019-04-23T19:04:07.138Z,50.30
2019-04-23T19:06:32.894Z,50.30
2019-04-23T19:09:13.620Z,50.10
2019-04-23T19:12:03.453Z,50.10
2019-04-23T19:14:18.752Z,50.00
2019-04-23T19:17:05.850Z,49.90
2019-04-23T19:19:20.293Z,49.90
2019-04-23T19:24:26.356Z,49.80
2019-04-23T19:31:53.942Z,51.00
2019-04-23T19:34:35.653Z,51.30
2019-04-23T19:36:59.228Z,51.40
2019-04-23T19:39:40.228Z,51.50
2019-04-23T19:44:32.803Z,51.50
2019-04-23T19:49:34.250Z,51.70
2019-04-23T19:51:59.460Z,51.90
2019-04-23T19:57:02.141Z,52.20
2019-04-23T19:59:45.147Z,52.30
2019-04-23T20:02:11.857Z,52.60
2019-04-23T20:12:25.086Z,54.00
2019-04-23T20:14:41.666Z,54.10
2019-04-23T20:17:31.391Z,54.50
2019-04-23T20:22:17.123Z,55.00
2019-04-23T20:25:18.880Z,55.00
2019-04-23T20:35:04.154Z,55.80
2019-04-23T20:37:42.774Z,56.00
2019-04-23T20:39:56.734Z,55.90
2019-04-23T20:42:27.674Z,56.40
2019-04-23T20:44:58.807Z,56.30
2019-04-23T20:47:30.418Z,56.30
2019-04-23T20:49:58.562Z,55.70
2019-04-23T20:52:30.664Z,56.60
2019-04-23T20:57:43.801Z,56.90
2019-04-23T21:05:22.795Z,57.40
2019-04-23T21:13:09.247Z,57.80
2019-04-23T21:15:33.647Z,59.10
2019-04-23T21:18:22.366Z,58.00
2019-04-23T21:20:30.173Z,58.30
2019-04-23T21:25:22.362Z,58.40
2019-04-23T21:28:11.523Z,59.10
2019-04-23T21:30:58.934Z,59.20
2019-04-23T21:33:11.802Z,59.30
2019-04-23T21:36:05.429Z,59.50
2019-04-23T21:38:30.312Z,59.70
2019-04-23T21:41:00.886Z,60.10
2019-04-23T21:44:00.533Z,60.70
2019-04-23T21:46:17.976Z,60.70
2019-04-23T21:48:53.187Z,61.20
2019-04-23T21:51:28.511Z,61.00
2019-04-23T21:53:46.008Z,61.30
2019-04-23T21:58:54.861Z,61.10
2019-04-23T22:01:27.870Z,61.20
2019-04-23T22:06:33.547Z,61.70
2019-04-23T22:08:59.467Z,61.90
2019-04-23T22:14:05.492Z,62.30
2019-04-23T22:16:35.643Z,62.60
2019-04-23T22:21:38.812Z,63.30
2019-04-23T22:26:37.821Z,63.60
2019-04-23T22:29:16.488Z,63.80
2019-04-23T22:34:17.069Z,64.30
2019-04-23T22:36:59.218Z,64.50
2019-04-23T22:39:21.923Z,64.70
2019-04-23T22:42:36.316Z,64.90
2019-04-23T22:44:22.510Z,65.00
2019-04-23T22:46:56.327Z,65.30
2019-04-23T22:49:41.823Z,65.70
2019-04-23T22:52:14.370Z,65.70
2019-04-23T22:54:41.959Z,66.00
2019-04-23T22:57:17.383Z,66.40
2019-04-23T22:59:51.004Z,66.40
2019-04-23T23:02:16.308Z,66.60
2019-04-23T23:04:54.475Z,67.00
2019-04-23T23:12:13.823Z,67.60
2019-04-23T23:14:45.804Z,67.90
2019-04-23T23:17:11.531Z,67.80
2019-04-23T23:20:01.087Z,68.20
2019-04-23T23:22:20.101Z,68.50
2019-04-23T23:24:56.367Z,68.50
2019-04-23T23:27:25.130Z,68.80
2019-04-23T23:29:58.124Z,69.10
2019-04-23T23:32:26.889Z,69.20
2019-04-23T23:35:12.617Z,69.60
2019-04-23T23:37:28.096Z,69.60
2019-04-23T23:40:04.922Z,70.00
2019-04-23T23:42:23.163Z,70.30
2019-04-23T23:45:12.815Z,70.80
2019-04-23T23:47:28.812Z,71.10
2019-04-23T23:50:12.754Z,71.30
2019-04-23T23:52:48.994Z,71.70
2019-04-23T23:55:15.761Z,71.90
2019-04-23T23:57:44.440Z,72.40
